Time;durP1;ratioP1;P1;durP2;ratioP2;P2;SDS_P1;SDS_P2;PMS_P1;PMS_P2;Temp;Humidity;BMP_temperature;BMP_pressure;BME280_temperature;BME280_humidity;BME280_pressure;Samples;Min_cycle;Max_cycle;Signal;HPM_P1;HPM_P2
2023/03/16 00:01:33;;;;;;;4.13;1.50;;;2.50;99.90;;;;;;4998987;28;20462;-59
2023/03/16 00:04:01;;;;;;;9.27;2.20;;;2.50;99.90;;;;;;4999191;28;20454;-60
2023/03/16 00:06:27;;;;;;;4.17;2.10;;;2.50;99.90;;;;;;4998928;28;20584;-61
2023/03/16 00:08:57;;;;;;;3.60;1.70;;;2.50;99.90;;;;;;4998624;28;20439;-60
2023/03/16 00:11:24;;;;;;;3.00;2.80;;;2.50;99.90;;;;;;4999400;28;20475;-60
2023/03/16 00:13:53;;;;;;;2.43;1.53;;;2.50;99.90;;;;;;4999535;28;20454;-58
2023/03/16 00:16:23;;;;;;;6.50;2.37;;;2.40;99.90;;;;;;4998795;28;20466;-57
2023/03/16 00:18:50;;;;;;;12.97;1.60;;;2.40;99.90;;;;;;4998934;28;20494;-59
2023/03/16 00:21:20;;;;;;;3.63;1.50;;;2.40;99.90;;;;;;4998956;28;20455;-60
2023/03/16 00:23:49;;;;;;;7.67;2.37;;;2.40;99.90;;;;;;4998599;28;20911;-59
2023/03/16 00:26:17;;;;;;;3.40;2.07;;;2.30;99.90;;;;;;4998471;28;20464;-57
2023/03/16 00:28:44;;;;;;;7.87;1.93;;;2.30;99.90;;;;;;4998541;28;20434;-61
2023/03/16 00:31:12;;;;;;;2.70;2.10;;;2.30;99.90;;;;;;4998876;28;20467;-60
2023/03/16 00:33:39;;;;;;;1.83;1.57;;;2.20;99.90;;;;;;4998959;28;20439;-59
2023/03/16 00:36:08;;;;;;;4.17;1.73;;;2.20;99.90;;;;;;4998392;28;20475;-56
2023/03/16 00:38:44;;;;;;;4.13;1.67;;;2.10;99.90;;;;;;4998704;28;20430;-61
2023/03/16 00:41:13;;;;;;;3.47;1.50;;;2.10;99.90;;;;;;4999224;28;20459;-60
2023/03/16 00:43:44;;;;;;;2.60;1.57;;;2.10;99.90;;;;;;4999179;28;20427;-56
2023/03/16 00:46:12;;;;;;;2.70;1.53;;;2.00;99.90;;;;;;4998734;28;20485;-57
2023/03/16 00:48:41;;;;;;;2.20;1.63;;;2.00;99.90;;;;;;4998300;28;20443;-57
2023/03/16 00:51:11;;;;;;;3.13;1.40;;;2.00;99.90;;;;;;4999156;28;20447;-58
2023/03/16 00:53:39;;;;;;;3.20;1.73;;;2.00;99.90;;;;;;4998427;28;20432;-60
2023/03/16 00:56:08;;;;;;;2.83;1.73;;;2.00;99.90;;;;;;4999236;28;20435;-57
2023/03/16 00:58:37;;;;;;;4.40;2.13;;;2.00;99.90;;;;;;4999056;28;20419;-57
2023/03/16 01:01:09;;;;;;;9.47;2.43;;;2.00;99.90;;;;;;4999268;28;20497;-60
2023/03/16 01:03:37;;;;;;;4.10;2.00;;;2.00;99.90;;;;;;4998884;28;20426;-54
2023/03/16 01:06:05;;;;;;;3.00;1.90;;;2.00;99.90;;;;;;4998695;28;20427;-62
2023/03/16 01:08:32;;;;;;;6.77;2.00;;;2.00;99.90;;;;;;4998455;28;20482;-59
2023/03/16 01:11:03;;;;;;;6.63;1.63;;;2.00;99.90;;;;;;4999035;28;20518;-62
2023/03/16 01:13:33;;;;;;;4.57;1.80;;;1.90;99.90;;;;;;4999167;28;20455;-57
2023/03/16 01:16:00;;;;;;;5.93;1.97;;;2.00;99.90;;;;;;4998516;28;20436;-56
2023/03/16 01:18:29;;;;;;;3.10;1.60;;;1.90;99.90;;;;;;4997968;28;20458;-57
2023/03/16 01:20:55;;;;;;;2.60;1.80;;;2.00;99.90;;;;;;4998319;28;20557;-61
2023/03/16 01:23:23;;;;;;;5.80;1.70;;;2.00;99.90;;;;;;4997964;28;20799;-60
2023/03/16 01:25:52;;;;;;;1.73;1.47;;;2.00;99.90;;;;;;4998374;28;20431;-57
2023/03/16 01:28:24;;;;;;;2.40;1.07;;;2.00;99.90;;;;;;4997706;28;20561;-59
2023/03/16 01:30:52;;;;;;;2.10;1.60;;;2.00;99.90;;;;;;4998561;28;20458;-58
2023/03/16 01:33:22;;;;;;;3.20;2.13;;;2.00;99.90;;;;;;4997560;28;20474;-59
2023/03/16 01:35:54;;;;;;;3.23;2.50;;;2.00;99.90;;;;;;4998014;28;20464;-60
2023/03/16 01:38:22;;;;;;;2.77;2.30;;;2.00;99.90;;;;;;4998170;28;20510;-62
2023/03/16 01:40:52;;;;;;;6.30;2.00;;;2.00;99.90;;;;;;4998373;28;20467;-61
2023/03/16 01:43:21;;;;;;;3.50;2.33;;;2.00;99.90;;;;;;4998318;28;20455;-59
2023/03/16 01:46:21;;;;;;;2.97;1.50;;;2.00;99.90;;;;;;4998679;28;20454;-55
2023/03/16 01:49:05;;;;;;;2.23;1.77;;;2.00;99.90;;;;;;4998066;28;20454;-60
2023/03/16 01:51:37;;;;;;;5.70;1.60;;;1.90;99.90;;;;;;4998136;28;20418;-57
2023/03/16 01:54:08;;;;;;;4.00;1.70;;;1.90;99.90;;;;;;4998319;28;20451;-56
2023/03/16 01:56:40;;;;;;;5.70;2.30;;;1.90;99.90;;;;;;4998363;28;20435;-58
2023/03/16 01:59:11;;;;;;;5.20;2.30;;;1.90;99.90;;;;;;4997759;28;20475;-61
2023/03/16 02:01:38;;;;;;;3.47;1.50;;;1.90;99.90;;;;;;4998193;28;20411;-56
2023/03/16 02:04:18;;;;;;;6.50;2.10;;;1.90;99.90;;;;;;4998017;28;20458;-53
2023/03/16 02:06:47;;;;;;;2.40;1.20;;;1.80;99.90;;;;;;5001894;28;20435;-57
2023/03/16 02:09:16;;;;;;;1.83;1.40;;;1.90;99.90;;;;;;5001570;28;20469;-59
2023/03/16 02:11:43;;;;;;;5.97;1.57;;;1.90;99.90;;;;;;5001626;28;20453;-61
2023/03/16 02:14:11;;;;;;;2.43;1.60;;;1.90;99.90;;;;;;5001738;28;20455;-61
2023/03/16 02:16:39;;;;;;;5.30;2.17;;;1.90;99.90;;;;;;5001467;28;20415;-58
2023/03/16 02:19:13;;;;;;;3.53;1.77;;;1.90;99.90;;;;;;5001225;28;20455;-58
2023/03/16 02:21:48;;;;;;;2.33;1.57;;;1.90;99.90;;;;;;5001300;28;20411;-61
2023/03/16 02:24:15;;;;;;;3.17;1.70;;;1.90;99.90;;;;;;5001419;28;20471;-59
2023/03/16 02:26:47;;;;;;;2.40;1.60;;;1.90;99.90;;;;;;5000917;28;20454;-60
2023/03/16 02:29:26;;;;;;;2.23;1.60;;;1.90;99.90;;;;;;5000896;28;20451;-61
2023/03/16 02:31:55;;;;;;;3.93;2.70;;;1.90;99.90;;;;;;5001417;28;20431;-59
2023/03/16 02:34:24;;;;;;;3.73;1.50;;;2.00;99.90;;;;;;5000484;28;20473;-59
2023/03/16 02:36:52;;;;;;;4.83;1.70;;;1.90;99.90;;;;;;5000631;28;20430;-55
2023/03/16 02:39:19;;;;;;;4.10;1.50;;;1.90;99.90;;;;;;5000734;28;20474;-55
2023/03/16 02:41:47;;;;;;;2.53;1.80;;;1.80;99.90;;;;;;5000916;28;20459;-56
2023/03/16 02:44:17;;;;;;;1.87;1.67;;;1.90;99.90;;;;;;5000618;28;20554;-61
2023/03/16 02:46:46;;;;;;;2.60;2.17;;;1.80;99.90;;;;;;5000504;28;20446;-60
2023/03/16 02:49:19;;;;;;;7.43;1.63;;;1.80;99.90;;;;;;5000241;28;20443;-57
2023/03/16 02:51:47;;;;;;;2.60;1.50;;;1.80;99.90;;;;;;5000226;28;20455;-58
2023/03/16 02:54:14;;;;;;;2.47;1.30;;;1.80;99.90;;;;;;5000413;28;20427;-60
2023/03/16 02:56:41;;;;;;;5.20;1.80;;;1.80;99.90;;;;;;5000140;28;20510;-61
2023/03/16 02:59:08;;;;;;;2.40;1.57;;;1.80;99.90;;;;;;4999774;28;20451;-58
2023/03/16 03:01:37;;;;;;;5.73;1.80;;;1.70;99.90;;;;;;4999847;28;20494;-60
2023/03/16 03:04:06;;;;;;;6.40;1.70;;;1.70;99.90;;;;;;5000370;28;20451;-57
2023/03/16 03:06:34;;;;;;;3.73;1.60;;;1.70;99.90;;;;;;5000116;28;20430;-61
2023/03/16 03:09:01;;;;;;;3.53;1.67;;;1.70;99.90;;;;;;5000135;28;20458;-60
2023/03/16 03:11:28;;;;;;;1.67;1.40;;;1.70;99.90;;;;;;4999737;28;20459;-61
2023/03/16 03:13:57;;;;;;;4.27;2.77;;;1.60;99.90;;;;;;4999732;28;20442;-58
2023/03/16 03:16:32;;;;;;;7.50;1.80;;;1.70;99.90;;;;;;4999203;28;20498;-60
2023/03/16 03:18:59;;;;;;;3.53;1.60;;;1.60;99.90;;;;;;4999814;28;20431;-55
2023/03/16 03:21:27;;;;;;;2.83;1.47;;;1.60;99.90;;;;;;4999335;28;20494;-56
2023/03/16 03:23:55;;;;;;;1.20;1.00;;;1.50;99.90;;;;;;4999967;28;20493;-57
2023/03/16 03:26:23;;;;;;;5.43;1.43;;;1.50;99.90;;;;;;4999548;28;20478;-58
2023/03/16 03:28:51;;;;;;;4.43;1.27;;;1.50;99.90;;;;;;4999749;28;20438;-60
2023/03/16 03:31:21;;;;;;;5.53;2.40;;;1.40;99.90;;;;;;4999548;28;20477;-58
2023/03/16 03:33:48;;;;;;;1.10;0.90;;;1.40;99.90;;;;;;4999876;28;20466;-59
2023/03/16 03:36:15;;;;;;;2.87;1.30;;;1.40;99.90;;;;;;4999385;28;20478;-58
2023/03/16 03:38:43;;;;;;;1.60;1.10;;;1.40;99.90;;;;;;4998792;28;20431;-60
2023/03/16 03:41:11;;;;;;;2.37;1.37;;;1.50;99.90;;;;;;4999690;28;20506;-59
2023/03/16 03:43:38;;;;;;;5.00;1.87;;;1.50;99.90;;;;;;4998359;28;20411;-56
2023/03/16 03:46:05;;;;;;;4.87;2.20;;;1.50;99.90;;;;;;4999394;28;20439;-59
2023/03/16 03:48:32;;;;;;;6.17;1.53;;;1.50;99.90;;;;;;4999063;28;20510;-59
2023/03/16 03:50:59;;;;;;;11.30;3.10;;;1.40;99.90;;;;;;4999518;28;20459;-58
2023/03/16 03:53:26;;;;;;;1.60;1.27;;;1.40;99.90;;;;;;4999732;28;20450;-59
2023/03/16 03:55:53;;;;;;;2.33;1.53;;;1.40;99.90;;;;;;4999538;28;20453;-58
2023/03/16 03:58:22;;;;;;;1.90;1.40;;;1.40;99.90;;;;;;4999025;28;20463;-58
2023/03/16 04:00:49;;;;;;;7.13;4.37;;;1.30;99.90;;;;;;4999496;28;20536;-58
2023/03/16 04:03:16;;;;;;;5.97;1.90;;;1.30;99.90;;;;;;4999861;28;20526;-60
2023/03/16 04:05:43;;;;;;;10.67;2.03;;;1.30;99.90;;;;;;5000125;28;20427;-56
2023/03/16 04:08:10;;;;;;;1.50;1.00;;;1.30;99.90;;;;;;4999778;28;20477;-53
2023/03/16 04:10:37;;;;;;;4.77;2.23;;;1.30;99.90;;;;;;5000141;28;20469;-60
2023/03/16 04:13:05;;;;;;;3.37;1.73;;;1.30;99.90;;;;;;4999125;28;20535;-56
2023/03/16 04:15:37;;;;;;;3.57;1.77;;;1.30;99.90;;;;;;4999123;28;20495;-57
2023/03/16 04:18:04;;;;;;;3.53;1.73;;;1.30;99.90;;;;;;4998995;28;20558;-58
2023/03/16 04:20:34;;;;;;;1.80;1.57;;;1.30;99.90;;;;;;4998781;28;20459;-63
2023/03/16 04:23:00;;;;;;;2.73;1.47;;;1.20;99.90;;;;;;4999332;28;20460;-56
2023/03/16 04:25:29;;;;;;;1.93;1.10;;;1.30;99.90;;;;;;4999477;28;20462;-54
2023/03/16 04:27:58;;;;;;;4.13;2.23;;;1.20;99.90;;;;;;4997831;28;20482;-60
2023/03/16 04:30:27;;;;;;;2.73;1.60;;;1.20;99.90;;;;;;4998418;28;20458;-60
2023/03/16 04:32:56;;;;;;;2.30;1.73;;;1.20;99.90;;;;;;4998420;28;20471;-59
2023/03/16 04:35:23;;;;;;;7.93;2.03;;;1.30;99.90;;;;;;4998233;28;20415;-58
2023/03/16 04:37:50;;;;;;;3.27;1.73;;;1.30;99.90;;;;;;4998417;28;20503;-57
2023/03/16 04:40:18;;;;;;;2.80;1.63;;;1.20;99.90;;;;;;4998901;28;20523;-55
2023/03/16 04:42:48;;;;;;;2.77;1.77;;;1.20;99.90;;;;;;4998520;28;20441;-61
2023/03/16 04:45:17;;;;;;;8.50;2.67;;;1.20;99.90;;;;;;4998621;28;20438;-59
2023/03/16 04:47:44;;;;;;;10.23;1.53;;;1.20;99.90;;;;;;4998813;28;20455;-57
2023/03/16 04:50:12;;;;;;;5.70;1.43;;;1.20;99.90;;;;;;4999063;28;20446;-59
2023/03/16 04:52:40;;;;;;;1.30;1.13;;;1.20;99.90;;;;;;4998621;28;20438;-59
2023/03/16 04:55:07;;;;;;;12.97;2.23;;;1.20;99.90;;;;;;4997865;28;20462;-61
2023/03/16 04:57:34;;;;;;;9.03;1.67;;;1.30;99.90;;;;;;4998151;28;20439;-59
2023/03/16 05:00:08;;;;;;;2.13;1.13;;;1.20;99.90;;;;;;4997994;28;20486;-59
2023/03/16 05:02:35;;;;;;;1.87;1.03;;;1.30;99.90;;;;;;4998898;28;20485;-60
2023/03/16 05:05:03;;;;;;;2.03;1.50;;;1.20;99.90;;;;;;4998179;28;20471;-58
2023/03/16 05:07:31;;;;;;;1.67;1.13;;;1.30;99.90;;;;;;4998762;28;20494;-58
2023/03/16 05:09:58;;;;;;;3.20;1.50;;;1.20;99.90;;;;;;4998711;28;20457;-56
2023/03/16 05:12:25;;;;;;;3.63;1.17;;;1.20;99.90;;;;;;4998460;28;20435;-60
2023/03/16 05:14:52;;;;;;;3.27;1.90;;;1.20;99.90;;;;;;4998582;28;20535;-60
2023/03/16 05:17:19;;;;;;;4.60;2.87;;;1.20;99.90;;;;;;4998247;28;20450;-60
2023/03/16 05:19:46;;;;;;;2.70;1.23;;;1.10;99.90;;;;;;4998765;28;20490;-61
2023/03/16 05:22:12;;;;;;;1.90;1.13;;;1.20;99.90;;;;;;4998400;28;20471;-57
2023/03/16 05:24:41;;;;;;;4.37;2.00;;;1.20;99.90;;;;;;4998455;28;20486;-60
2023/03/16 05:27:08;;;;;;;3.33;2.10;;;1.20;99.90;;;;;;4998072;28;20427;-57
2023/03/16 05:29:35;;;;;;;4.93;1.90;;;1.20;99.90;;;;;;4997824;28;20447;-60
2023/03/16 05:32:02;;;;;;;1.70;1.50;;;1.30;99.90;;;;;;4998025;28;20430;-56
2023/03/16 05:34:28;;;;;;;3.90;2.07;;;1.20;99.90;;;;;;4997330;28;20435;-57
2023/03/16 05:36:55;;;;;;;11.30;1.80;;;1.20;99.90;;;;;;4998363;28;20427;-59
2023/03/16 05:39:23;;;;;;;2.37;1.33;;;1.20;99.90;;;;;;4999035;28;20453;-57
2023/03/16 05:41:51;;;;;;;5.40;1.70;;;1.30;99.90;;;;;;5002327;28;20473;-60
2023/03/16 05:44:18;;;;;;;3.33;1.77;;;1.30;99.90;;;;;;5001891;28;20470;-59
2023/03/16 05:46:45;;;;;;;11.77;1.67;;;1.30;99.90;;;;;;5001681;28;20612;-58
2023/03/16 05:49:12;;;;;;;3.17;1.57;;;1.30;99.90;;;;;;5001134;28;20450;-59
2023/03/16 05:51:39;;;;;;;10.57;1.73;;;1.20;99.90;;;;;;5001584;28;20466;-55
2023/03/16 05:54:06;;;;;;;2.47;0.97;;;1.30;99.90;;;;;;5001386;28;20447;-61
2023/03/16 05:56:36;;;;;;;4.90;1.70;;;1.20;99.90;;;;;;5000850;28;20491;-60
2023/03/16 05:59:04;;;;;;;4.77;1.40;;;1.30;99.90;;;;;;5001241;28;20427;-60
2023/03/16 06:01:33;;;;;;;3.60;1.60;;;1.20;99.90;;;;;;5001242;28;20550;-59
2023/03/16 06:04:01;;;;;;;4.20;2.57;;;1.30;99.90;;;;;;5001546;28;20423;-60
2023/03/16 06:06:31;;;;;;;4.07;1.90;;;1.30;99.90;;;;;;5000895;28;20546;-61
2023/03/16 06:08:58;;;;;;;3.33;1.37;;;1.30;99.90;;;;;;5001075;28;20449;-58
2023/03/16 06:11:25;;;;;;;6.20;2.10;;;1.40;99.90;;;;;;5000948;28;20467;-60
2023/03/16 06:13:52;;;;;;;3.30;1.40;;;1.40;99.90;;;;;;5000949;28;20431;-56
2023/03/16 06:16:20;;;;;;;9.20;2.00;;;1.40;99.90;;;;;;5000677;28;20449;-60
2023/03/16 06:18:47;;;;;;;1.40;1.20;;;1.40;99.90;;;;;;5000564;28;20428;-60
2023/03/16 06:21:14;;;;;;;4.70;2.07;;;1.50;99.90;;;;;;5000600;28;20532;-57
2023/03/16 06:23:40;;;;;;;6.00;1.77;;;1.50;99.90;;;;;;5000559;28;20418;-59
2023/03/16 06:26:07;;;;;;;3.83;1.87;;;1.50;99.90;;;;;;5000692;28;20627;-57
2023/03/16 06:28:34;;;;;;;4.07;1.70;;;1.50;99.90;;;;;;5000508;28;20439;-61
2023/03/16 06:31:01;;;;;;;5.60;1.90;;;1.50;99.90;;;;;;5000742;28;20458;-61
2023/03/16 06:33:30;;;;;;;3.80;2.03;;;1.60;99.90;;;;;;5000554;28;20451;-58
2023/03/16 06:35:57;;;;;;;3.00;1.40;;;1.70;99.90;;;;;;5000341;28;20439;-58
2023/03/16 06:38:24;;;;;;;3.57;1.70;;;1.70;99.90;;;;;;4999829;28;20442;-61
2023/03/16 06:40:53;;;;;;;2.90;1.93;;;1.80;99.90;;;;;;4998274;28;20505;-57
2023/03/16 06:43:20;;;;;;;3.80;2.30;;;1.90;99.90;;;;;;4999098;28;20463;-60
2023/03/16 06:45:47;;;;;;;5.07;2.37;;;1.90;99.90;;;;;;4998905;28;20438;-62
2023/03/16 06:48:17;;;;;;;4.07;1.67;;;1.90;99.90;;;;;;4998991;28;20514;-62
2023/03/16 06:50:46;;;;;;;3.17;1.63;;;2.00;99.90;;;;;;4998456;28;20498;-61
2023/03/16 06:53:13;;;;;;;4.40;1.80;;;2.00;99.90;;;;;;4999651;28;20952;-61
2023/03/16 06:55:40;;;;;;;1.93;1.23;;;2.00;99.90;;;;;;4999326;28;20435;-61
2023/03/16 06:58:07;;;;;;;3.47;1.70;;;2.10;99.90;;;;;;4999071;28;20498;-58
2023/03/16 07:00:34;;;;;;;4.90;1.67;;;2.20;99.90;;;;;;4999198;28;20458;-60
2023/03/16 07:03:01;;;;;;;10.20;1.60;;;2.20;99.90;;;;;;4999245;28;20487;-60
2023/03/16 07:05:28;;;;;;;3.60;2.00;;;2.30;99.90;;;;;;4998905;28;20451;-56
2023/03/16 07:08:05;;;;;;;7.90;2.00;;;2.30;99.90;;;;;;4998643;28;20447;-60
2023/03/16 07:10:32;;;;;;;3.53;2.03;;;2.30;99.90;;;;;;4998394;28;20449;-61
2023/03/16 07:12:58;;;;;;;5.50;1.90;;;2.40;99.90;;;;;;4998948;28;20450;-61
2023/03/16 07:15:25;;;;;;;2.87;1.73;;;2.50;99.90;;;;;;4999091;28;20486;-62
2023/03/16 07:17:52;;;;;;;4.60;2.20;;;2.60;99.90;;;;;;4998691;28;20451;-62
2023/03/16 07:20:20;;;;;;;9.20;3.00;;;2.70;99.90;;;;;;4999282;28;20475;-57
2023/03/16 07:22:47;;;;;;;4.17;2.03;;;2.70;99.90;;;;;;4998564;28;20486;-57
2023/03/16 07:25:15;;;;;;;4.63;2.10;;;2.80;99.90;;;;;;4998696;28;20447;-62
2023/03/16 07:27:44;;;;;;;8.07;2.67;;;3.00;99.90;;;;;;4999079;28;20458;-60
2023/03/16 07:30:14;;;;;;;2.77;2.07;;;3.00;99.90;;;;;;4999541;28;20527;-61
2023/03/16 07:32:43;;;;;;;6.80;2.83;;;3.20;99.90;;;;;;4999563;28;20438;-59
2023/03/16 07:35:11;;;;;;;3.83;2.37;;;3.30;99.90;;;;;;4988523;28;20501;-60
2023/03/16 07:37:38;;;;;;;4.60;2.10;;;3.40;99.90;;;;;;4993474;28;20445;-58
2023/03/16 07:40:07;;;;;;;6.43;2.10;;;3.50;99.90;;;;;;4994121;28;20510;-63
2023/03/16 07:42:36;;;;;;;2.00;1.53;;;3.70;99.90;;;;;;4986473;28;20956;-61
2023/03/16 07:45:04;;;;;;;3.57;2.40;;;3.70;99.90;;;;;;4990131;28;20481;-61
2023/03/16 07:47:32;;;;;;;11.77;2.90;;;3.90;99.90;;;;;;4990414;28;20478;-63
2023/03/16 07:50:00;;;;;;;9.53;2.10;;;4.00;99.90;;;;;;4985502;28;20538;-63
2023/03/16 07:52:28;;;;;;;1.63;1.43;;;4.00;99.90;;;;;;4988496;28;20495;-59
2023/03/16 07:54:55;;;;;;;3.80;1.73;;;4.10;99.90;;;;;;4989973;28;20494;-57
2023/03/16 07:57:22;;;;;;;5.00;1.73;;;4.30;99.90;;;;;;4984324;28;20522;-61
2023/03/16 07:59:50;;;;;;;2.80;1.73;;;4.40;99.90;;;;;;4985422;28;20482;-60
2023/03/16 08:02:20;;;;;;;2.63;1.83;;;4.50;99.90;;;;;;4983654;28;20515;-61
2023/03/16 08:04:47;;;;;;;3.43;1.77;;;4.60;99.90;;;;;;4991016;28;20435;-57
2023/03/16 08:07:16;;;;;;;2.20;1.57;;;4.70;99.90;;;;;;4998490;28;20442;-60
2023/03/16 08:09:43;;;;;;;3.23;1.77;;;4.70;99.90;;;;;;4998547;28;20465;-60
2023/03/16 08:12:12;;;;;;;5.47;1.97;;;4.80;99.90;;;;;;4997984;28;20439;-58
2023/03/16 08:14:39;;;;;;;6.00;2.10;;;4.80;99.90;;;;;;4993920;28;20458;-60
2023/03/16 08:17:07;;;;;;;18.33;5.97;;;5.00;99.90;;;;;;4985480;28;20493;-61
2023/03/16 08:19:34;;;;;;;4.00;2.13;;;5.10;99.90;;;;;;4981979;28;20478;-61
2023/03/16 08:22:02;;;;;;;9.33;3.77;;;5.20;99.90;;;;;;4992410;28;20466;-61
2023/03/16 08:24:29;;;;;;;6.70;3.07;;;5.30;99.90;;;;;;4979734;28;20761;-63
2023/03/16 08:26:57;;;;;;;10.30;2.63;;;5.40;99.90;;;;;;4979244;28;20495;-61
2023/03/16 08:29:24;;;;;;;4.70;1.47;;;5.50;99.90;;;;;;4979200;28;20454;-61
2023/03/16 08:31:52;;;;;;;7.40;1.73;;;5.50;99.90;;;;;;4979867;28;20474;-60
2023/03/16 08:34:21;;;;;;;3.40;1.60;;;5.60;99.90;;;;;;4979819;28;20495;-60
2023/03/16 08:36:47;;;;;;;2.13;1.40;;;5.70;99.90;;;;;;4985902;28;20518;-58
2023/03/16 08:39:15;;;;;;;11.07;2.73;;;5.90;99.90;;;;;;4982929;28;20510;-60
2023/03/16 08:41:42;;;;;;;3.30;1.43;;;6.60;99.90;;;;;;4988921;28;20479;-56
2023/03/16 08:44:09;;;;;;;4.00;1.67;;;8.10;99.90;;;;;;4993658;28;20419;-59
2023/03/16 08:46:36;;;;;;;4.40;1.67;;;10.00;99.90;;;;;;4996069;28;20882;-60
2023/03/16 08:49:03;;;;;;;6.33;1.63;;;11.70;97.90;;;;;;4989166;28;20451;-61
2023/03/16 08:51:31;;;;;;;3.70;2.50;;;13.00;91.90;;;;;;4983285;28;20474;-59
2023/03/16 08:53:58;;;;;;;4.83;2.00;;;14.60;79.60;;;;;;4981774;28;20477;-59
2023/03/16 08:56:26;;;;;;;9.57;2.20;;;15.90;70.20;;;;;;4995357;28;20454;-61
2023/03/16 08:58:53;;;;;;;2.17;1.60;;;17.10;61.80;;;;;;4979509;28;20510;-61
2023/03/16 09:01:21;;;;;;;2.43;1.40;;;18.20;57.10;;;;;;4977184;28;20534;-59
2023/03/16 09:03:47;;;;;;;3.90;1.40;;;18.60;53.70;;;;;;4985936;28;20474;-60
2023/03/16 09:06:16;;;;;;;3.70;1.80;;;19.10;50.90;;;;;;4981140;28;20467;-59
2023/03/16 09:08:46;;;;;;;5.30;1.80;;;19.80;49.00;;;;;;4977089;28;20971;-62
2023/03/16 09:11:15;;;;;;;3.03;1.73;;;20.60;46.30;;;;;;4978108;28;20788;-59
2023/03/16 09:13:43;;;;;;;7.20;2.83;;;20.40;44.50;;;;;;4982868;28;20529;-60
2023/03/16 09:16:12;;;;;;;4.17;1.63;;;20.20;44.40;;;;;;4978768;28;20942;-60
2023/03/16 09:18:40;;;;;;;3.20;1.70;;;20.00;43.40;;;;;;4983059;28;20517;-61
2023/03/16 09:21:09;;;;;;;3.63;1.30;;;19.40;43.40;;;;;;4996719;28;20514;-60
2023/03/16 09:23:37;;;;;;;2.87;1.40;;;18.90;44.00;;;;;;4993086;28;20482;-61
2023/03/16 09:26:07;;;;;;;5.07;1.80;;;18.50;43.40;;;;;;4991350;28;20430;-56
2023/03/16 09:28:37;;;;;;;2.20;1.20;;;18.00;43.60;;;;;;4993712;28;20446;-59
2023/03/16 09:31:04;;;;;;;8.40;1.97;;;18.00;44.30;;;;;;4995838;28;20477;-61
2023/03/16 09:33:32;;;;;;;2.07;1.23;;;18.20;44.00;;;;;;4995113;28;20419;-61
2023/03/16 09:36:00;;;;;;;4.03;1.97;;;17.20;44.10;;;;;;4995160;28;20453;-60
2023/03/16 09:38:29;;;;;;;4.33;1.40;;;15.90;45.10;;;;;;4978954;28;20451;-61
2023/03/16 09:40:59;;;;;;;3.53;1.50;;;14.90;47.40;;;;;;4979870;28;20521;-62
2023/03/16 09:43:56;;;;;;;7.57;2.20;;;13.90;49.20;;;;;;4978290;28;20567;-62
2023/03/16 09:46:28;;;;;;;3.37;1.43;;;13.10;50.90;;;;;;4981661;28;20439;-59
2023/03/16 09:48:56;;;;;;;2.87;1.50;;;12.50;52.40;;;;;;4981293;28;20928;-61
2023/03/16 09:51:35;;;;;;;4.27;1.93;;;12.70;52.60;;;;;;4978062;28;20795;-61
2023/03/16 09:54:05;;;;;;;7.07;1.93;;;13.60;51.70;;;;;;4986122;28;20435;-59
2023/03/16 09:56:51;;;;;;;12.07;6.10;;;14.30;49.10;;;;;;4984258;28;20485;-61
2023/03/16 09:59:37;;;;;;;2.33;1.80;;;15.30;48.70;;;;;;4995303;28;20505;-60
2023/03/16 10:05:37;;;;;;;4.40;2.10;;;17.10;46.40;;;;;;4995883;28;20450;-61
2023/03/16 10:08:12;;;;;;;10.33;2.07;;;17.90;44.50;;;;;;4989788;28;20439;-62
2023/03/16 10:10:54;;;;;;;2.10;1.07;;;18.00;43.00;;;;;;4977897;28;20474;-60
2023/03/16 10:13:32;;;;;;;6.40;1.80;;;18.20;43.30;;;;;;4978817;28;20431;-60
2023/03/16 10:16:05;;;;;;;2.30;1.43;;;18.00;42.60;;;;;;4978517;28;20482;-62
2023/03/16 10:18:39;;;;;;;5.40;2.10;;;17.80;42.50;;;;;;4978523;28;20469;-61
2023/03/16 10:21:13;;;;;;;2.50;1.47;;;17.30;44.00;;;;;;4982791;28;20498;-62
2023/03/16 10:23:41;;;;;;;2.77;1.67;;;17.40;44.20;;;;;;4989149;28;20481;-61
2023/03/16 10:26:13;;;;;;;4.50;1.70;;;17.70;44.20;;;;;;4988900;28;20936;-61
2023/03/16 10:28:41;;;;;;;1.90;1.60;;;18.10;43.10;;;;;;4988905;28;20427;-61
2023/03/16 10:31:12;;;;;;;2.37;1.30;;;18.40;42.60;;;;;;4983983;28;20478;-61
2023/03/16 10:33:40;;;;;;;2.10;1.30;;;18.70;41.60;;;;;;4980717;28;20463;-63
2023/03/16 10:36:15;;;;;;;6.03;1.67;;;19.00;40.60;;;;;;4979266;28;20467;-60
2023/03/16 10:38:48;;;;;;;3.23;1.10;;;19.00;40.00;;;;;;4979329;28;20434;-58
2023/03/16 10:41:25;;;;;;;1.30;1.07;;;19.10;39.80;;;;;;4979300;28;20435;-62
2023/03/16 10:43:54;;;;;;;5.30;1.37;;;18.90;39.50;;;;;;4979231;28;20470;-61
2023/03/16 10:46:21;;;;;;;9.63;1.53;;;18.80;38.40;;;;;;4987555;28;20454;-60
2023/03/16 10:48:58;;;;;;;5.93;1.87;;;18.70;38.50;;;;;;4985302;28;20505;-61
2023/03/16 10:51:29;;;;;;;1.77;1.40;;;18.80;39.00;;;;;;4978315;28;20762;-61
2023/03/16 10:54:03;;;;;;;2.10;1.67;;;18.90;38.60;;;;;;4978675;28;20442;-61
2023/03/16 10:56:35;;;;;;;5.03;1.63;;;18.70;38.50;;;;;;4977798;28;20530;-62
2023/03/16 10:59:14;;;;;;;5.27;1.80;;;18.20;38.80;;;;;;4978027;28;20481;-63
2023/03/16 11:01:45;;;;;;;3.87;1.90;;;17.70;40.10;;;;;;4978374;28;20996;-59
2023/03/16 11:04:15;;;;;;;3.63;1.50;;;17.30;41.90;;;;;;4981582;28;20527;-60
2023/03/16 11:06:53;;;;;;;1.53;1.23;;;17.00;41.80;;;;;;4980396;28;20443;-61
2023/03/16 11:09:23;;;;;;;3.43;1.30;;;16.70;41.10;;;;;;4979087;28;20432;-62
2023/03/16 11:11:51;;;;;;;3.80;1.53;;;16.40;42.50;;;;;;4979697;28;20451;-61
2023/03/16 11:14:21;;;;;;;1.73;1.40;;;15.90;42.20;;;;;;4979074;28;20489;-60
2023/03/16 11:16:52;;;;;;;8.77;2.13;;;15.40;42.60;;;;;;4978980;28;20482;-62
2023/03/16 11:19:23;;;;;;;4.50;1.53;;;14.90;42.60;;;;;;4978703;28;20874;-63
2023/03/16 11:21:56;;;;;;;2.90;1.37;;;14.70;43.40;;;;;;4979006;28;20471;-61
2023/03/16 11:24:30;;;;;;;5.60;1.17;;;14.50;44.50;;;;;;4993176;28;20423;-58
2023/03/16 11:27:00;;;;;;;2.33;1.30;;;14.30;44.00;;;;;;4999201;28;20422;-60
2023/03/16 11:29:37;;;;;;;1.70;1.10;;;14.20;43.90;;;;;;4998019;28;20435;-58
2023/03/16 11:32:07;;;;;;;4.27;1.30;;;13.80;45.00;;;;;;4997813;28;20470;-64
2023/03/16 11:34:35;;;;;;;3.13;2.20;;;13.60;45.10;;;;;;4997518;28;20475;-61
2023/03/16 11:37:15;;;;;;;4.80;1.80;;;13.60;46.10;;;;;;4989803;28;20471;-61
2023/03/16 11:39:52;;;;;;;1.33;1.00;;;13.40;44.70;;;;;;4981066;28;20506;-61
2023/03/16 11:42:33;;;;;;;2.77;1.30;;;13.20;44.10;;;;;;4983577;28;20450;-61
2023/03/16 11:45:09;;;;;;;1.67;1.33;;;13.00;44.50;;;;;;4989377;28;20506;-58
2023/03/16 11:48:17;;;;;;;2.70;1.20;;;12.70;45.60;;;;;;4995689;28;20478;-57
2023/03/16 11:50:56;;;;;;;1.83;1.17;;;12.50;47.10;;;;;;4926768;29;20532;-58
2023/03/16 11:53:38;;;;;;;5.23;1.80;;;12.40;43.90;;;;;;4932262;29;20585;-58
2023/03/16 11:56:14;;;;;;;4.97;1.40;;;12.30;43.60;;;;;;4965054;28;20519;-60
2023/03/16 11:58:55;;;;;;;2.27;1.60;;;12.10;42.50;;;;;;4977391;28;20521;-62
2023/03/16 12:01:26;;;;;;;2.03;1.20;;;12.00;42.40;;;;;;4976938;28;20466;-62
2023/03/16 12:04:20;;;;;;;10.13;1.30;;;11.80;44.30;;;;;;4983926;28;20454;-59
2023/03/16 12:07:00;;;;;;;3.17;1.63;;;11.70;45.40;;;;;;4997301;28;20517;-60
2023/03/16 12:10:09;;;;;;;3.97;1.23;;;11.70;46.10;;;;;;4997509;28;20470;-59
2023/03/16 12:12:55;;;;;;;3.20;1.20;;;11.70;46.30;;;;;;4997445;28;20439;-58
2023/03/16 12:15:37;;;;;;;2.30;1.27;;;11.70;46.30;;;;;;4997188;28;20534;-59
2023/03/16 12:18:12;;;;;;;2.70;1.17;;;11.70;46.60;;;;;;4996777;28;20490;-58
2023/03/16 12:20:47;;;;;;;3.23;1.40;;;11.70;47.90;;;;;;4997600;28;20474;-59
2023/03/16 12:23:21;;;;;;;7.63;1.23;;;11.60;48.20;;;;;;4997460;28;20467;-60
2023/03/16 12:25:51;;;;;;;3.50;1.50;;;11.50;47.50;;;;;;4996945;28;20539;-61
2023/03/16 12:28:22;;;;;;;1.70;1.10;;;11.60;48.20;;;;;;4994336;28;20454;-61
2023/03/16 12:30:58;;;;;;;2.37;1.20;;;11.60;48.70;;;;;;4997425;28;20493;-58
2023/03/16 12:33:39;;;;;;;1.60;1.43;;;11.60;48.40;;;;;;4997597;28;20415;-60
2023/03/16 12:36:31;;;;;;;7.43;1.67;;;11.70;49.00;;;;;;4996929;28;20466;-60
2023/03/16 12:39:04;;;;;;;2.50;1.37;;;11.80;49.10;;;;;;4997012;28;20447;-60
2023/03/16 12:41:39;;;;;;;4.60;1.60;;;11.80;48.00;;;;;;4995653;28;20458;-60
2023/03/16 12:44:12;;;;;;;1.50;1.00;;;11.80;45.40;;;;;;4982192;28;20557;-61
2023/03/16 12:46:51;;;;;;;3.00;1.17;;;11.80;43.60;;;;;;4994854;28;20482;-60
2023/03/16 12:49:19;;;;;;;1.73;1.03;;;11.80;43.70;;;;;;4995414;28;20462;-58
2023/03/16 12:51:47;;;;;;;4.03;1.83;;;11.80;45.30;;;;;;4996292;28;20475;-58
2023/03/16 12:54:22;;;;;;;1.40;1.00;;;11.90;45.20;;;;;;4997047;28;20475;-60
2023/03/16 12:56:53;;;;;;;7.33;3.50;;;11.80;44.20;;;;;;4992271;28;20482;-60
2023/03/16 12:59:21;;;;;;;9.37;5.70;;;11.90;44.80;;;;;;4994396;28;20454;-60
2023/03/16 13:01:51;;;;;;;1.90;1.27;;;11.90;44.60;;;;;;4996008;28;20477;-60
2023/03/16 13:04:21;;;;;;;4.67;1.30;;;11.80;44.60;;;;;;4988380;28;20510;-61
2023/03/16 13:06:54;;;;;;;6.63;3.20;;;11.90;43.90;;;;;;4979079;28;20538;-61
2023/03/16 13:09:26;;;;;;;2.23;1.20;;;11.90;43.30;;;;;;4988137;28;20499;-60
2023/03/16 13:11:55;;;;;;;4.30;1.40;;;12.00;42.10;;;;;;4983161;28;20544;-57